sensor_id;sensor_type;location;lat;lon;timestamp;P1;durP1;ratioP1;P2;durP2;ratioP2
74741;SDS011;76291;48.288;16.314;2024-03-29T00:00:18;0.8;;;0.4;;
74741;SDS011;76291;48.288;16.314;2024-03-29T00:01:18;0.8;;;0.3;;
74741;SDS011;76291;48.288;16.314;2024-03-29T00:02:18;0.8;;;0.3;;
74741;SDS011;76291;48.288;16.314;2024-03-29T00:03:18;0.8;;;0.3;;
74741;SDS011;76291;48.288;16.314;2024-03-29T00:04:18;0.8;;;0.3;;
74741;SDS011;76291;48.288;16.314;2024-03-29T00:05:18;0.8;;;0.3;;
74741;SDS011;76291;48.288;16.314;2024-03-29T00:06:18;1.2;;;0.5;;
74741;SDS011;76291;48.288;16.314;2024-03-29T00:07:18;1.2;;;0.5;;
74741;SDS011;76291;48.288;16.314;2024-03-29T00:08:18;1.2;;;0.5;;
74741;SDS011;76291;48.288;16.314;2024-03-29T00:09:18;1.2;;;0.5;;
74741;SDS011;76291;48.288;16.314;2024-03-29T00:10:18;1.2;;;0.5;;
74741;SDS011;76291;48.288;16.314;2024-03-29T00:11:18;0.9;;;0.4;;
74741;SDS011;76291;48.288;16.314;2024-03-29T00:12:18;0.9;;;0.4;;
74741;SDS011;76291;48.288;16.314;2024-03-29T00:13:18;0.9;;;0.4;;
74741;SDS011;76291;48.288;16.314;2024-03-29T00:14:18;0.9;;;0.4;;
74741;SDS011;76291;48.288;16.314;2024-03-29T00:15:18;0.9;;;0.4;;
74741;SDS011;76291;48.288;16.314;2024-03-29T00:16:18;1.8;;;0.4;;
74741;SDS011;76291;48.288;16.314;2024-03-29T00:17:18;1.8;;;0.4;;
74741;SDS011;76291;48.288;16.314;2024-03-29T00:18:18;1.8;;;0.4;;
74741;SDS011;76291;48.288;16.314;2024-03-29T00:19:17;1.8;;;0.4;;
74741;SDS011;76291;48.288;16.314;2024-03-29T00:20:17;1.8;;;0.4;;
74741;SDS011;76291;48.288;16.314;2024-03-29T00:21:17;1.4;;;0.5;;
74741;SDS011;76291;48.288;16.314;2024-03-29T00:22:17;1.4;;;0.5;;
74741;SDS011;76291;48.288;16.314;2024-03-29T00:23:17;1.4;;;0.5;;
74741;SDS011;76291;48.288;16.314;2024-03-29T00:24:17;1.4;;;0.5;;
74741;SDS011;76291;48.288;16.314;2024-03-29T00:26:00;1.1;;;0.5;;
74741;SDS011;76291;48.288;16.314;2024-03-29T00:27:00;1.1;;;0.5;;
74741;SDS011;76291;48.288;16.314;2024-03-29T00:28:00;1.1;;;0.5;;
74741;SDS011;76291;48.288;16.314;2024-03-29T00:29:00;1.1;;;0.5;;
74741;SDS011;76291;48.288;16.314;2024-03-29T00:30:00;1.1;;;0.5;;
74741;SDS011;76291;48.288;16.314;2024-03-29T00:31:00;0.4;;;0.4;;
74741;SDS011;76291;48.288;16.314;2024-03-29T00:32:00;0.4;;;0.4;;
74741;SDS011;76291;48.288;16.314;2024-03-29T00:33:00;0.4;;;0.4;;
74741;SDS011;76291;48.288;16.314;2024-03-29T00:34:00;0.4;;;0.4;;
74741;SDS011;76291;48.288;16.314;2024-03-29T00:35:00;0.4;;;0.4;;
74741;SDS011;76291;48.288;16.314;2024-03-29T00:36:00;0.7;;;0.4;;
74741;SDS011;76291;48.288;16.314;2024-03-29T00:37:00;0.7;;;0.4;;
74741;SDS011;76291;48.288;16.314;2024-03-29T00:38:00;0.7;;;0.4;;
74741;SDS011;76291;48.288;16.314;2024-03-29T00:39:00;0.7;;;0.4;;
74741;SDS011;76291;48.288;16.314;2024-03-29T00:40:00;0.7;;;0.4;;
74741;SDS011;76291;48.288;16.314;2024-03-29T00:41:00;1.1;;;0.6;;
74741;SDS011;76291;48.288;16.314;2024-03-29T00:42:00;1.1;;;0.6;;
74741;SDS011;76291;48.288;16.314;2024-03-29T00:43:00;1.1;;;0.6;;
74741;SDS011;76291;48.288;16.314;2024-03-29T00:44:00;1.1;;;0.6;;
74741;SDS011;76291;48.288;16.314;2024-03-29T00:45:00;1.1;;;0.6;;
74741;SDS011;76291;48.288;16.314;2024-03-29T00:46:00;0.9;;;0.4;;
74741;SDS011;76291;48.288;16.314;2024-03-29T00:46:59;0.9;;;0.4;;
74741;SDS011;76291;48.288;16.314;2024-03-29T00:48:00;0.9;;;0.4;;
74741;SDS011;76291;48.288;16.314;2024-03-29T00:48:59;0.9;;;0.4;;
74741;SDS011;76291;48.288;16.314;2024-03-29T00:50:00;0.9;;;0.4;;
74741;SDS011;76291;48.288;16.314;2024-03-29T00:50:59;0.4;;;0.4;;
74741;SDS011;76291;48.288;16.314;2024-03-29T00:52:00;0.4;;;0.4;;
74741;SDS011;76291;48.288;16.314;2024-03-29T00:53:00;0.4;;;0.4;;
74741;SDS011;76291;48.288;16.314;2024-03-29T00:53:59;0.4;;;0.4;;
74741;SDS011;76291;48.288;16.314;2024-03-29T00:54:59;0.4;;;0.4;;
74741;SDS011;76291;48.288;16.314;2024-03-29T00:55:59;0.5;;;0.4;;
74741;SDS011;76291;48.288;16.314;2024-03-29T00:56:59;0.5;;;0.4;;
74741;SDS011;76291;48.288;16.314;2024-03-29T00:57:59;0.5;;;0.4;;
74741;SDS011;76291;48.288;16.314;2024-03-29T00:58:59;0.5;;;0.4;;
74741;SDS011;76291;48.288;16.314;2024-03-29T00:59:59;0.5;;;0.4;;
74741;SDS011;76291;48.288;16.314;2024-03-29T01:00:59;1.4;;;0.5;;
74741;SDS011;76291;48.288;16.314;2024-03-29T01:01:59;1.4;;;0.5;;
74741;SDS011;76291;48.288;16.314;2024-03-29T01:02:59;1.4;;;0.5;;
74741;SDS011;76291;48.288;16.314;2024-03-29T01:03:59;1.4;;;0.5;;
74741;SDS011;76291;48.288;16.314;2024-03-29T01:04:59;1.4;;;0.5;;
74741;SDS011;76291;48.288;16.314;2024-03-29T01:05:59;1.5;;;0.5;;
74741;SDS011;76291;48.288;16.314;2024-03-29T01:06:59;1.5;;;0.5;;
74741;SDS011;76291;48.288;16.314;2024-03-29T01:07:59;1.5;;;0.5;;
74741;SDS011;76291;48.288;16.314;2024-03-29T01:09:01;1.5;;;0.5;;
74741;SDS011;76291;48.288;16.314;2024-03-29T01:10:02;1.5;;;0.5;;
74741;SDS011;76291;48.288;16.314;2024-03-29T01:10:59;1.2;;;0.5;;
74741;SDS011;76291;48.288;16.314;2024-03-29T01:11:59;1.2;;;0.5;;
74741;SDS011;76291;48.288;16.314;2024-03-29T01:12:59;1.2;;;0.5;;
74741;SDS011;76291;48.288;16.314;2024-03-29T01:13:59;1.2;;;0.5;;
74741;SDS011;76291;48.288;16.314;2024-03-29T01:14:59;1.2;;;0.5;;
74741;SDS011;76291;48.288;16.314;2024-03-29T01:15:59;1.6;;;0.5;;
74741;SDS011;76291;48.288;16.314;2024-03-29T01:16:59;1.6;;;0.5;;
74741;SDS011;76291;48.288;16.314;2024-03-29T01:17:59;1.6;;;0.5;;
74741;SDS011;76291;48.288;16.314;2024-03-29T01:18:59;1.6;;;0.5;;
74741;SDS011;76291;48.288;16.314;2024-03-29T01:19:59;1.6;;;0.5;;
74741;SDS011;76291;48.288;16.314;2024-03-29T01:20:59;0.4;;;0.4;;
74741;SDS011;76291;48.288;16.314;2024-03-29T01:21:58;0.4;;;0.4;;
74741;SDS011;76291;48.288;16.314;2024-03-29T01:22:58;0.4;;;0.4;;
74741;SDS011;76291;48.288;16.314;2024-03-29T01:23:58;0.4;;;0.4;;
74741;SDS011;76291;48.288;16.314;2024-03-29T01:24:59;0.4;;;0.4;;
74741;SDS011;76291;48.288;16.314;2024-03-29T01:25:58;0.7;;;0.4;;
74741;SDS011;76291;48.288;16.314;2024-03-29T01:26:58;0.7;;;0.4;;
74741;SDS011;76291;48.288;16.314;2024-03-29T01:27:58;0.7;;;0.4;;
74741;SDS011;76291;48.288;16.314;2024-03-29T01:28:59;0.7;;;0.4;;
74741;SDS011;76291;48.288;16.314;2024-03-29T01:29:58;0.7;;;0.4;;
74741;SDS011;76291;48.288;16.314;2024-03-29T01:30:58;0.8;;;0.4;;
74741;SDS011;76291;48.288;16.314;2024-03-29T01:31:58;0.8;;;0.4;;
74741;SDS011;76291;48.288;16.314;2024-03-29T01:32:58;0.8;;;0.4;;
74741;SDS011;76291;48.288;16.314;2024-03-29T01:33:58;0.8;;;0.4;;
74741;SDS011;76291;48.288;16.314;2024-03-29T01:34:58;0.8;;;0.4;;
74741;SDS011;76291;48.288;16.314;2024-03-29T01:35:58;1.5;;;0.5;;
74741;SDS011;76291;48.288;16.314;2024-03-29T01:36:58;1.5;;;0.5;;
74741;SDS011;76291;48.288;16.314;2024-03-29T01:37:58;1.5;;;0.5;;
74741;SDS011;76291;48.288;16.314;2024-03-29T01:38:58;1.5;;;0.5;;
74741;SDS011;76291;48.288;16.314;2024-03-29T01:39:58;1.5;;;0.5;;
74741;SDS011;76291;48.288;16.314;2024-03-29T01:40:58;0.8;;;0.5;;
74741;SDS011;76291;48.288;16.314;2024-03-29T01:41:58;0.8;;;0.5;;
74741;SDS011;76291;48.288;16.314;2024-03-29T01:43:00;0.8;;;0.5;;
74741;SDS011;76291;48.288;16.314;2024-03-29T01:43:58;0.8;;;0.5;;
74741;SDS011;76291;48.288;16.314;2024-03-29T01:44:58;0.8;;;0.5;;
74741;SDS011;76291;48.288;16.314;2024-03-29T01:45:58;0.7;;;0.5;;
74741;SDS011;76291;48.288;16.314;2024-03-29T01:46:58;0.7;;;0.5;;
74741;SDS011;76291;48.288;16.314;2024-03-29T01:47:58;0.7;;;0.5;;
74741;SDS011;76291;48.288;16.314;2024-03-29T01:48:58;0.7;;;0.5;;
74741;SDS011;76291;48.288;16.314;2024-03-29T01:49:58;0.7;;;0.5;;
74741;SDS011;76291;48.288;16.314;2024-03-29T01:50:59;1.3;;;0.5;;
74741;SDS011;76291;48.288;16.314;2024-03-29T01:51:58;1.3;;;0.5;;
74741;SDS011;76291;48.288;16.314;2024-03-29T01:52:58;1.3;;;0.5;;
74741;SDS011;76291;48.288;16.314;2024-03-29T01:53:58;1.3;;;0.5;;
74741;SDS011;76291;48.288;16.314;2024-03-29T01:54:57;1.3;;;0.5;;
74741;SDS011;76291;48.288;16.314;2024-03-29T01:55:59;1.2;;;0.5;;
74741;SDS011;76291;48.288;16.314;2024-03-29T01:56:58;1.2;;;0.5;;
74741;SDS011;76291;48.288;16.314;2024-03-29T01:57:58;1.2;;;0.5;;
74741;SDS011;76291;48.288;16.314;2024-03-29T01:58:58;1.2;;;0.5;;
74741;SDS011;76291;48.288;16.314;2024-03-29T01:59:58;1.2;;;0.5;;
74741;SDS011;76291;48.288;16.314;2024-03-29T02:00:58;1.2;;;0.6;;
74741;SDS011;76291;48.288;16.314;2024-03-29T02:01:58;1.2;;;0.6;;
74741;SDS011;76291;48.288;16.314;2024-03-29T02:02:57;1.2;;;0.6;;
74741;SDS011;76291;48.288;16.314;2024-03-29T02:03:57;1.2;;;0.6;;
74741;SDS011;76291;48.288;16.314;2024-03-29T02:04:57;1.2;;;0.6;;
74741;SDS011;76291;48.288;16.314;2024-03-29T02:05:57;1.9;;;0.5;;
74741;SDS011;76291;48.288;16.314;2024-03-29T02:06:57;1.9;;;0.5;;
74741;SDS011;76291;48.288;16.314;2024-03-29T02:07:57;1.9;;;0.5;;
74741;SDS011;76291;48.288;16.314;2024-03-29T02:08:57;1.9;;;0.5;;
74741;SDS011;76291;48.288;16.314;2024-03-29T02:09:57;1.9;;;0.5;;
74741;SDS011;76291;48.288;16.314;2024-03-29T02:10:57;0.9;;;0.5;;
74741;SDS011;76291;48.288;16.314;2024-03-29T02:11:57;0.9;;;0.5;;
74741;SDS011;76291;48.288;16.314;2024-03-29T02:12:57;0.9;;;0.5;;
74741;SDS011;76291;48.288;16.314;2024-03-29T02:13:57;0.9;;;0.5;;
74741;SDS011;76291;48.288;16.314;2024-03-29T02:14:57;0.9;;;0.5;;
74741;SDS011;76291;48.288;16.314;2024-03-29T02:15:57;0.5;;;0.5;;
74741;SDS011;76291;48.288;16.314;2024-03-29T02:16:57;0.5;;;0.5;;
74741;SDS011;76291;48.288;16.314;2024-03-29T02:17:58;0.5;;;0.5;;
74741;SDS011;76291;48.288;16.314;2024-03-29T02:18:57;0.5;;;0.5;;
74741;SDS011;76291;48.288;16.314;2024-03-29T02:19:57;0.5;;;0.5;;
74741;SDS011;76291;48.288;16.314;2024-03-29T02:20:57;1.2;;;0.5;;
74741;SDS011;76291;48.288;16.314;2024-03-29T02:21:59;1.2;;;0.5;;
74741;SDS011;76291;48.288;16.314;2024-03-29T02:23:04;1.2;;;0.5;;
74741;SDS011;76291;48.288;16.314;2024-03-29T02:24:05;1.2;;;0.5;;
74741;SDS011;76291;48.288;16.314;2024-03-29T02:24:57;1.2;;;0.5;;
74741;SDS011;76291;48.288;16.314;2024-03-29T02:25:57;1.0;;;0.6;;
74741;SDS011;76291;48.288;16.314;2024-03-29T02:26:57;1.0;;;0.6;;
74741;SDS011;76291;48.288;16.314;2024-03-29T02:27:57;1.0;;;0.6;;
74741;SDS011;76291;48.288;16.314;2024-03-29T02:28:57;1.0;;;0.6;;
74741;SDS011;76291;48.288;16.314;2024-03-29T02:29:56;1.0;;;0.6;;
74741;SDS011;76291;48.288;16.314;2024-03-29T02:30:57;1.2;;;0.9;;
74741;SDS011;76291;48.288;16.314;2024-03-29T02:31:56;1.2;;;0.9;;
74741;SDS011;76291;48.288;16.314;2024-03-29T02:32:58;1.2;;;0.9;;
74741;SDS011;76291;48.288;16.314;2024-03-29T02:33:56;1.2;;;0.9;;
74741;SDS011;76291;48.288;16.314;2024-03-29T02:34:56;1.2;;;0.9;;
74741;SDS011;76291;48.288;16.314;2024-03-29T02:35:56;1.6;;;0.9;;
74741;SDS011;76291;48.288;16.314;2024-03-29T02:36:56;1.6;;;0.9;;
74741;SDS011;76291;48.288;16.314;2024-03-29T02:37:56;1.6;;;0.9;;
74741;SDS011;76291;48.288;16.314;2024-03-29T02:38:56;1.6;;;0.9;;
74741;SDS011;76291;48.288;16.314;2024-03-29T02:39:56;1.6;;;0.9;;
74741;SDS011;76291;48.288;16.314;2024-03-29T02:40:56;1.5;;;0.8;;
74741;SDS011;76291;48.288;16.314;2024-03-29T02:41:56;1.5;;;0.8;;
74741;SDS011;76291;48.288;16.314;2024-03-29T02:42:56;1.5;;;0.8;;
74741;SDS011;76291;48.288;16.314;2024-03-29T02:43:56;1.5;;;0.8;;
74741;SDS011;76291;48.288;16.314;2024-03-29T02:44:56;1.5;;;0.8;;
74741;SDS011;76291;48.288;16.314;2024-03-29T02:45:56;1.1;;;0.9;;
74741;SDS011;76291;48.288;16.314;2024-03-29T02:46:56;1.1;;;0.9;;
74741;SDS011;76291;48.288;16.314;2024-03-29T02:47:56;1.1;;;0.9;;
74741;SDS011;76291;48.288;16.314;2024-03-29T02:48:56;1.1;;;0.9;;
74741;SDS011;76291;48.288;16.314;2024-03-29T02:49:56;1.1;;;0.9;;
74741;SDS011;76291;48.288;16.314;2024-03-29T02:50:56;2.2;;;1.0;;
74741;SDS011;76291;48.288;16.314;2024-03-29T02:51:56;2.2;;;1.0;;
74741;SDS011;76291;48.288;16.314;2024-03-29T02:52:56;2.2;;;1.0;;
74741;SDS011;76291;48.288;16.314;2024-03-29T02:53:56;2.2;;;1.0;;
74741;SDS011;76291;48.288;16.314;2024-03-29T02:54:56;2.2;;;1.0;;
74741;SDS011;76291;48.288;16.314;2024-03-29T02:55:56;2.4;;;0.8;;
74741;SDS011;76291;48.288;16.314;2024-03-29T02:56:56;2.4;;;0.8;;
74741;SDS011;76291;48.288;16.314;2024-03-29T02:57:56;2.4;;;0.8;;
74741;SDS011;76291;48.288;16.314;2024-03-29T02:58:56;2.4;;;0.8;;
74741;SDS011;76291;48.288;16.314;2024-03-29T02:59:56;2.4;;;0.8;;
74741;SDS011;76291;48.288;16.314;2024-03-29T03:00:56;1.6;;;0.9;;
74741;SDS011;76291;48.288;16.314;2024-03-29T03:01:55;1.6;;;0.9;;
74741;SDS011;76291;48.288;16.314;2024-03-29T03:02:56;1.6;;;0.9;;
74741;SDS011;76291;48.288;16.314;2024-03-29T03:03:55;1.6;;;0.9;;
74741;SDS011;76291;48.288;16.314;2024-03-29T03:04:55;1.6;;;0.9;;
74741;SDS011;76291;48.288;16.314;2024-03-29T03:05:55;1.1;;;0.8;;
74741;SDS011;76291;48.288;16.314;2024-03-29T03:06:55;1.1;;;0.8;;
74741;SDS011;76291;48.288;16.314;2024-03-29T03:07:55;1.1;;;0.8;;
74741;SDS011;76291;48.288;16.314;2024-03-29T03:08:55;1.1;;;0.8;;
74741;SDS011;76291;48.288;16.314;2024-03-29T03:09:55;1.1;;;0.8;;
74741;SDS011;76291;48.288;16.314;2024-03-29T03:10:55;2.7;;;0.8;;
74741;SDS011;76291;48.288;16.314;2024-03-29T03:11:55;2.7;;;0.8;;
74741;SDS011;76291;48.288;16.314;2024-03-29T03:13:01;2.7;;;0.8;;
74741;SDS011;76291;48.288;16.314;2024-03-29T03:13:58;2.7;;;0.8;;
74741;SDS011;76291;48.288;16.314;2024-03-29T03:14:56;2.7;;;0.8;;
74741;SDS011;76291;48.288;16.314;2024-03-29T03:15:56;1.3;;;0.7;;
74741;SDS011;76291;48.288;16.314;2024-03-29T03:16:55;1.3;;;0.7;;
74741;SDS011;76291;48.288;16.314;2024-03-29T03:17:55;1.3;;;0.7;;
74741;SDS011;76291;48.288;16.314;2024-03-29T03:18:55;1.3;;;0.7;;
74741;SDS011;76291;48.288;16.314;2024-03-29T03:19:55;1.3;;;0.7;;
74741;SDS011;76291;48.288;16.314;2024-03-29T03:20:56;1.2;;;0.7;;
74741;SDS011;76291;48.288;16.314;2024-03-29T03:21:55;1.2;;;0.7;;
74741;SDS011;76291;48.288;16.314;2024-03-29T03:22:55;1.2;;;0.7;;
74741;SDS011;76291;48.288;16.314;2024-03-29T03:23:55;1.2;;;0.7;;
74741;SDS011;76291;48.288;16.314;2024-03-29T03:24:55;1.2;;;0.7;;
74741;SDS011;76291;48.288;16.314;2024-03-29T03:25:56;1.5;;;0.5;;
74741;SDS011;76291;48.288;16.314;2024-03-29T03:26:55;1.5;;;0.5;;
74741;SDS011;76291;48.288;16.314;2024-03-29T03:27:55;1.5;;;0.5;;
74741;SDS011;76291;48.288;16.314;2024-03-29T03:28:57;1.5;;;0.5;;
74741;SDS011;76291;48.288;16.314;2024-03-29T03:29:55;1.5;;;0.5;;
74741;SDS011;76291;48.288;16.314;2024-03-29T03:30:55;1.0;;;0.5;;
74741;SDS011;76291;48.288;16.314;2024-03-29T03:31:55;1.0;;;0.5;;
74741;SDS011;76291;48.288;16.314;2024-03-29T03:32:55;1.0;;;0.5;;
74741;SDS011;76291;48.288;16.314;2024-03-29T03:33:55;1.0;;;0.5;;
74741;SDS011;76291;48.288;16.314;2024-03-29T03:34:55;1.0;;;0.5;;
74741;SDS011;76291;48.288;16.314;2024-03-29T03:35:54;1.1;;;0.5;;
74741;SDS011;76291;48.288;16.314;2024-03-29T03:36:54;1.1;;;0.5;;
74741;SDS011;76291;48.288;16.314;2024-03-29T03:37:54;1.1;;;0.5;;
74741;SDS011;76291;48.288;16.314;2024-03-29T03:38:54;1.1;;;0.5;;
74741;SDS011;76291;48.288;16.314;2024-03-29T03:39:54;1.1;;;0.5;;
74741;SDS011;76291;48.288;16.314;2024-03-29T03:40:54;3.0;;;0.8;;
74741;SDS011;76291;48.288;16.314;2024-03-29T03:41:54;3.0;;;0.8;;
74741;SDS011;76291;48.288;16.314;2024-03-29T03:42:54;3.0;;;0.8;;
74741;SDS011;76291;48.288;16.314;2024-03-29T03:43:54;3.0;;;0.8;;
74741;SDS011;76291;48.288;16.314;2024-03-29T03:44:54;3.0;;;0.8;;
74741;SDS011;76291;48.288;16.314;2024-03-29T03:46:00;0.9;;;0.7;;
74741;SDS011;76291;48.288;16.314;2024-03-29T03:46:55;0.9;;;0.7;;
74741;SDS011;76291;48.288;16.314;2024-03-29T03:47:54;0.9;;;0.7;;
74741;SDS011;76291;48.288;16.314;2024-03-29T03:48:54;0.9;;;0.7;;
74741;SDS011;76291;48.288;16.314;2024-03-29T03:49:54;0.9;;;0.7;;
74741;SDS011;76291;48.288;16.314;2024-03-29T03:50:55;2.4;;;0.8;;
74741;SDS011;76291;48.288;16.314;2024-03-29T03:51:54;2.4;;;0.8;;
74741;SDS011;76291;48.288;16.314;2024-03-29T03:52:54;2.4;;;0.8;;
74741;SDS011;76291;48.288;16.314;2024-03-29T03:53:54;2.4;;;0.8;;
74741;SDS011;76291;48.288;16.314;2024-03-29T03:54:54;2.4;;;0.8;;
74741;SDS011;76291;48.288;16.314;2024-03-29T03:55:54;0.8;;;0.5;;
74741;SDS011;76291;48.288;16.314;2024-03-29T03:56:54;0.8;;;0.5;;
74741;SDS011;76291;48.288;16.314;2024-03-29T03:57:54;0.8;;;0.5;;
74741;SDS011;76291;48.288;16.314;2024-03-29T03:58:54;0.8;;;0.5;;
74741;SDS011;76291;48.288;16.314;2024-03-29T03:59:54;0.8;;;0.5;;
74741;SDS011;76291;48.288;16.314;2024-03-29T04:00:54;1.5;;;0.6;;
74741;SDS011;76291;48.288;16.314;2024-03-29T04:01:54;1.5;;;0.6;;
74741;SDS011;76291;48.288;16.314;2024-03-29T04:02:54;1.5;;;0.6;;
74741;SDS011;76291;48.288;16.314;2024-03-29T04:03:54;1.5;;;0.6;;
74741;SDS011;76291;48.288;16.314;2024-03-29T04:04:54;1.5;;;0.6;;
74741;SDS011;76291;48.288;16.314;2024-03-29T04:05:54;1.0;;;0.5;;
74741;SDS011;76291;48.288;16.314;2024-03-29T04:06:54;1.0;;;0.5;;
74741;SDS011;76291;48.288;16.314;2024-03-29T04:07:54;1.0;;;0.5;;
74741;SDS011;76291;48.288;16.314;2024-03-29T04:08:54;1.0;;;0.5;;
74741;SDS011;76291;48.288;16.314;2024-03-29T04:09:54;1.0;;;0.5;;
74741;SDS011;76291;48.288;16.314;2024-03-29T04:10:53;0.9;;;0.6;;
74741;SDS011;76291;48.288;16.314;2024-03-29T04:11:53;0.9;;;0.6;;
74741;SDS011;76291;48.288;16.314;2024-03-29T04:12:53;0.9;;;0.6;;
74741;SDS011;76291;48.288;16.314;2024-03-29T04:13:53;0.9;;;0.6;;
74741;SDS011;76291;48.288;16.314;2024-03-29T04:14:53;0.9;;;0.6;;
74741;SDS011;76291;48.288;16.314;2024-03-29T04:16:00;0.8;;;0.6;;
74741;SDS011;76291;48.288;16.314;2024-03-29T04:16:53;0.8;;;0.6;;
74741;SDS011;76291;48.288;16.314;2024-03-29T04:17:53;0.8;;;0.6;;
74741;SDS011;76291;48.288;16.314;2024-03-29T04:18:53;0.8;;;0.6;;
74741;SDS011;76291;48.288;16.314;2024-03-29T04:19:53;0.8;;;0.6;;
74741;SDS011;76291;48.288;16.314;2024-03-29T04:21:02;1.1;;;0.5;;
74741;SDS011;76291;48.288;16.314;2024-03-29T04:21:53;1.1;;;0.5;;
74741;SDS011;76291;48.288;16.314;2024-03-29T04:22:53;1.1;;;0.5;;
74741;SDS011;76291;48.288;16.314;2024-03-29T04:23:53;1.1;;;0.5;;
74741;SDS011;76291;48.288;16.314;2024-03-29T04:24:53;1.1;;;0.5;;
74741;SDS011;76291;48.288;16.314;2024-03-29T04:25:53;1.4;;;0.5;;
74741;SDS011;76291;48.288;16.314;2024-03-29T04:26:53;1.4;;;0.5;;
74741;SDS011;76291;48.288;16.314;2024-03-29T04:27:53;1.4;;;0.5;;
74741;SDS011;76291;48.288;16.314;2024-03-29T04:28:53;1.4;;;0.5;;
74741;SDS011;76291;48.288;16.314;2024-03-29T04:29:54;1.4;;;0.5;;
74741;SDS011;76291;48.288;16.314;2024-03-29T04:30:55;1.7;;;0.5;;
74741;SDS011;76291;48.288;16.314;2024-03-29T04:31:53;1.7;;;0.5;;
74741;SDS011;76291;48.288;16.314;2024-03-29T04:32:53;1.7;;;0.5;;
74741;SDS011;76291;48.288;16.314;2024-03-29T04:33:53;1.7;;;0.5;;
74741;SDS011;76291;48.288;16.314;2024-03-29T04:34:53;1.7;;;0.5;;
74741;SDS011;76291;48.288;16.314;2024-03-29T04:35:56;0.5;;;0.4;;
74741;SDS011;76291;48.288;16.314;2024-03-29T04:36:53;0.5;;;0.4;;
74741;SDS011;76291;48.288;16.314;2024-03-29T04:37:53;0.5;;;0.4;;
74741;SDS011;76291;48.288;16.314;2024-03-29T04:38:53;0.5;;;0.4;;
74741;SDS011;76291;48.288;16.314;2024-03-29T04:39:53;0.5;;;0.4;;
74741;SDS011;76291;48.288;16.314;2024-03-29T04:40:54;1.8;;;0.7;;
74741;SDS011;76291;48.288;16.314;2024-03-29T04:41:53;1.8;;;0.7;;
74741;SDS011;76291;48.288;16.314;2024-03-29T04:42:53;1.8;;;0.7;;
74741;SDS011;76291;48.288;16.314;2024-03-29T04:43:52;1.8;;;0.7;;
74741;SDS011;76291;48.288;16.314;2024-03-29T04:44:52;1.8;;;0.7;;
74741;SDS011;76291;48.288;16.314;2024-03-29T04:46:23;0.6;;;0.4;;
74741;SDS011;76291;48.288;16.314;2024-03-29T04:46:52;0.6;;;0.4;;
74741;SDS011;76291;48.288;16.314;2024-03-29T04:47:52;0.6;;;0.4;;
74741;SDS011;76291;48.288;16.314;2024-03-29T04:48:52;0.6;;;0.4;;
74741;SDS011;76291;48.288;16.314;2024-03-29T04:49:52;0.6;;;0.4;;
74741;SDS011;76291;48.288;16.314;2024-03-29T04:50:52;1.1;;;0.4;;
74741;SDS011;76291;48.288;16.314;2024-03-29T04:51:52;1.1;;;0.4;;
74741;SDS011;76291;48.288;16.314;2024-03-29T04:52:52;1.1;;;0.4;;
74741;SDS011;76291;48.288;16.314;2024-03-29T04:53:52;1.1;;;0.4;;
74741;SDS011;76291;48.288;16.314;2024-03-29T04:54:52;1.1;;;0.4;;
74741;SDS011;76291;48.288;16.314;2024-03-29T04:55:54;0.3;;;0.3;;
74741;SDS011;76291;48.288;16.314;2024-03-29T04:56:52;0.3;;;0.3;;
74741;SDS011;76291;48.288;16.314;2024-03-29T04:57:52;0.3;;;0.3;;
74741;SDS011;76291;48.288;16.314;2024-03-29T05:01:14;0.7;;;0.4;;
74741;SDS011;76291;48.288;16.314;2024-03-29T05:01:52;0.7;;;0.4;;
74741;SDS011;76291;48.288;16.314;2024-03-29T05:02:52;0.7;;;0.4;;
74741;SDS011;76291;48.288;16.314;2024-03-29T05:03:52;0.7;;;0.4;;
74741;SDS011;76291;48.288;16.314;2024-03-29T05:04:52;0.7;;;0.4;;
74741;SDS011;76291;48.288;16.314;2024-03-29T05:05:52;1.7;;;0.5;;
74741;SDS011;76291;48.288;16.314;2024-03-29T05:07:52;1.7;;;0.5;;
74741;SDS011;76291;48.288;16.314;2024-03-29T05:08:52;1.7;;;0.5;;
74741;SDS011;76291;48.288;16.314;2024-03-29T05:09:52;1.7;;;0.5;;
74741;SDS011;76291;48.288;16.314;2024-03-29T05:10:52;0.6;;;0.5;;
74741;SDS011;76291;48.288;16.314;2024-03-29T05:11:52;0.6;;;0.5;;
74741;SDS011;76291;48.288;16.314;2024-03-29T05:12:52;0.6;;;0.5;;
74741;SDS011;76291;48.288;16.314;2024-03-29T05:13:52;0.6;;;0.5;;
74741;SDS011;76291;48.288;16.314;2024-03-29T05:14:52;0.6;;;0.5;;
74741;SDS011;76291;48.288;16.314;2024-03-29T05:15:51;1.3;;;0.5;;
74741;SDS011;76291;48.288;16.314;2024-03-29T05:16:51;1.3;;;0.5;;
74741;SDS011;76291;48.288;16.314;2024-03-29T05:17:52;1.3;;;0.5;;
74741;SDS011;76291;48.288;16.314;2024-03-29T05:18:51;1.3;;;0.5;;
74741;SDS011;76291;48.288;16.314;2024-03-29T05:19:51;1.3;;;0.5;;
74741;SDS011;76291;48.288;16.314;2024-03-29T05:20:51;1.0;;;0.7;;
74741;SDS011;76291;48.288;16.314;2024-03-29T05:21:51;1.0;;;0.7;;
74741;SDS011;76291;48.288;16.314;2024-03-29T05:22:51;1.0;;;0.7;;
74741;SDS011;76291;48.288;16.314;2024-03-29T05:23:51;1.0;;;0.7;;
74741;SDS011;76291;48.288;16.314;2024-03-29T05:24:53;1.0;;;0.7;;
74741;SDS011;76291;48.288;16.314;2024-03-29T05:25:56;1.5;;;0.7;;
74741;SDS011;76291;48.288;16.314;2024-03-29T05:26:51;1.5;;;0.7;;
74741;SDS011;76291;48.288;16.314;2024-03-29T05:27:52;1.5;;;0.7;;
74741;SDS011;76291;48.288;16.314;2024-03-29T05:28:51;1.5;;;0.7;;
74741;SDS011;76291;48.288;16.314;2024-03-29T05:29:51;1.5;;;0.7;;
74741;SDS011;76291;48.288;16.314;2024-03-29T05:30:51;3.1;;;1.6;;
74741;SDS011;76291;48.288;16.314;2024-03-29T05:31:51;3.1;;;1.6;;
74741;SDS011;76291;48.288;16.314;2024-03-29T05:32:51;3.1;;;1.6;;
74741;SDS011;76291;48.288;16.314;2024-03-29T05:33:51;3.1;;;1.6;;
74741;SDS011;76291;48.288;16.314;2024-03-29T05:34:51;3.1;;;1.6;;
74741;SDS011;76291;48.288;16.314;2024-03-29T05:35:51;2.1;;;1.2;;
74741;SDS011;76291;48.288;16.314;2024-03-29T05:36:51;2.1;;;1.2;;
74741;SDS011;76291;48.288;16.314;2024-03-29T05:37:51;2.1;;;1.2;;
74741;SDS011;76291;48.288;16.314;2024-03-29T05:38:51;2.1;;;1.2;;
74741;SDS011;76291;48.288;16.314;2024-03-29T05:39:53;2.1;;;1.2;;
74741;SDS011;76291;48.288;16.314;2024-03-29T05:40:51;9.7;;;4.6;;
74741;SDS011;76291;48.288;16.314;2024-03-29T05:41:51;9.7;;;4.6;;
74741;SDS011;76291;48.288;16.314;2024-03-29T05:42:51;9.7;;;4.6;;
74741;SDS011;76291;48.288;16.314;2024-03-29T05:43:51;9.7;;;4.6;;
74741;SDS011;76291;48.288;16.314;2024-03-29T05:44:51;9.7;;;4.6;;
74741;SDS011;76291;48.288;16.314;2024-03-29T05:45:52;12.0;;;5.6;;
74741;SDS011;76291;48.288;16.314;2024-03-29T05:46:51;12.0;;;5.6;;
74741;SDS011;76291;48.288;16.314;2024-03-29T05:47:53;12.0;;;5.6;;
74741;SDS011;76291;48.288;16.314;2024-03-29T05:48:51;12.0;;;5.6;;
74741;SDS011;76291;48.288;16.314;2024-03-29T05:49:51;12.0;;;5.6;;
74741;SDS011;76291;48.288;16.314;2024-03-29T05:50:50;7.1;;;5.3;;
74741;SDS011;76291;48.288;16.314;2024-03-29T05:51:50;7.1;;;5.3;;
74741;SDS011;76291;48.288;16.314;2024-03-29T05:52:51;7.1;;;5.3;;
74741;SDS011;76291;48.288;16.314;2024-03-29T05:53:50;7.1;;;5.3;;
74741;SDS011;76291;48.288;16.314;2024-03-29T05:54:50;7.1;;;5.3;;
74741;SDS011;76291;48.288;16.314;2024-03-29T05:55:50;2.3;;;1.2;;
74741;SDS011;76291;48.288;16.314;2024-03-29T05:56:50;2.3;;;1.2;;
74741;SDS011;76291;48.288;16.314;2024-03-29T05:57:50;2.3;;;1.2;;
74741;SDS011;76291;48.288;16.314;2024-03-29T05:58:50;2.3;;;1.2;;
74741;SDS011;76291;48.288;16.314;2024-03-29T05:59:50;2.3;;;1.2;;
74741;SDS011;76291;48.288;16.314;2024-03-29T06:00:50;1.5;;;0.8;;
74741;SDS011;76291;48.288;16.314;2024-03-29T06:01:50;1.5;;;0.8;;
74741;SDS011;76291;48.288;16.314;2024-03-29T06:02:50;1.5;;;0.8;;
74741;SDS011;76291;48.288;16.314;2024-03-29T06:03:50;1.5;;;0.8;;
74741;SDS011;76291;48.288;16.314;2024-03-29T06:04:50;1.5;;;0.8;;
74741;SDS011;76291;48.288;16.314;2024-03-29T06:05:50;1.5;;;0.6;;
74741;SDS011;76291;48.288;16.314;2024-03-29T06:06:50;1.5;;;0.6;;
74741;SDS011;76291;48.288;16.314;2024-03-29T06:07:50;1.5;;;0.6;;
74741;SDS011;76291;48.288;16.314;2024-03-29T06:08:50;1.5;;;0.6;;
74741;SDS011;76291;48.288;16.314;2024-03-29T06:09:50;1.5;;;0.6;;